Terminal Aerodrome Forecast
Issued by NWS Boise, ID

Home | Current Version | Previous Version | Text Only | Print | Product List | Glossary On
Versions: 1 2 3 4 5 6 7 8 9 10 11 12 13 14 15 16 17 18 19 20 21 22 23 24
294
FTUS45 KBOI 291132
TAFBOI
TAF
KBOI 291132Z 2912/3012 30008KT P6SM SCT090
     FM292000 31015G25KT P6SM VCSH BKN080
     FM300600 31009KT P6SM BKN100=

USA.gov is the U.S. government's official web portal to all federal, state and local government web resources and services.